Time;durP1;ratioP1;P1;durP2;ratioP2;P2;SDS_P1;SDS_P2;PMS_P1;PMS_P2;Temp;Humidity;BMP_temperature;BMP_pressure;BME280_temperature;BME280_humidity;BME280_pressure;Samples;Min_cycle;Max_cycle;Signal;HPM_P1;HPM_P2
2022/05/18 00:00:12;;;;;;;;;;;;;;;21.91;47.94;100837.81;5003410;28;7027;-72
2022/05/18 00:02:39;;;;;;;;;;;;;;;21.88;47.49;100836.09;5016376;28;6820;-72
2022/05/18 00:05:06;;;;;;;;;;;;;;;21.84;47.77;100842.13;4994376;28;7150;-72
2022/05/18 00:07:33;;;;;;;;;;;;;;;21.83;47.46;100834.31;5004770;28;6899;-72
2022/05/18 00:09:59;;;;;;;;;;;;;;;21.81;47.46;100842.13;5004809;28;6974;-72
2022/05/18 00:12:25;;;;;;;;;;;;;;;21.77;47.46;100841.22;5006502;28;6792;-72
2022/05/18 00:14:52;;;;;;;;;;;;;;;21.77;47.41;100845.53;5008186;28;6816;-72
2022/05/18 00:17:17;;;;;;;;;;;;;;;21.74;47.30;100843.81;5001702;28;6871;-72
2022/05/18 00:19:43;;;;;;;;;;;;;;;21.74;47.18;100838.59;5000312;28;6890;-72
2022/05/18 00:22:10;;;;;;;;;;;;;;;21.74;47.35;100842.91;4996803;28;7852;-72
2022/05/18 00:24:35;;;;;;;;;;;;;;;21.76;47.36;100849.91;4979974;28;7019;-72
2022/05/18 00:27:03;;;;;;;;;;;;;;;21.78;47.51;100855.13;5018049;28;6871;-72
2022/05/18 00:29:33;;;;;;;;;;;;;;;21.76;47.51;100855.13;5005046;28;8588;-72
2022/05/18 00:31:59;;;;;;;;;;;;;;;21.74;47.47;100859.44;5003137;28;7230;-72
2022/05/18 00:34:25;;;;;;;;;;;;;;;21.72;47.47;100861.16;5005867;28;6808;-72
2022/05/18 00:36:51;;;;;;;;;;;;;;;21.70;47.60;100859.41;5002085;28;6776;-72
2022/05/18 00:39:16;;;;;;;;;;;;;;;21.65;47.23;100865.41;5001575;28;6843;-71
2022/05/18 00:41:42;;;;;;;;;;;;;;;21.63;47.47;100866.25;5001613;28;6792;-71
2022/05/18 00:44:08;;;;;;;;;;;;;;;21.58;47.28;100868.81;5004639;28;6863;-71
2022/05/18 00:46:34;;;;;;;;;;;;;;;21.55;47.73;100860.97;5005060;28;6982;-71
2022/05/18 00:49:06;;;;;;;;;;;;;;;21.53;47.62;100861.78;4988105;28;6804;-71
2022/05/18 00:51:42;;;;;;;;;;;;;;;21.49;47.67;100861.78;4996327;28;6796;-71
2022/05/18 00:54:28;;;;;;;;;;;;;;;21.44;47.67;100863.47;5003928;28;6827;-71
2022/05/18 00:57:24;;;;;;;;;;;;;;;21.40;47.77;100864.28;5004621;28;7915;-71
2022/05/18 00:59:57;;;;;;;;;;;;;;;21.36;47.93;100859.91;5000916;28;6816;-71
2022/05/18 01:02:30;;;;;;;;;;;;;;;21.35;47.83;100864.25;5003912;28;7027;-71
2022/05/18 01:05:03;;;;;;;;;;;;;;;21.33;47.93;100871.19;4982154;28;7054;-71
2022/05/18 01:07:45;;;;;;;;;;;;;;;21.31;47.89;100869.41;4979226;28;7326;-71
2022/05/18 01:10:11;;;;;;;;;;;;;;;21.30;47.75;100859.84;4989383;28;6808;-72
2022/05/18 01:12:37;;;;;;;;;;;;;;;21.28;47.93;100861.56;5001715;28;6878;-72
2022/05/18 01:15:14;;;;;;;;;;;;;;;21.25;47.76;100867.59;5002440;28;6800;-72
2022/05/18 01:17:46;;;;;;;;;;;;;;;21.23;48.10;100864.13;4984126;28;6831;-72
2022/05/18 01:20:23;;;;;;;;;;;;;;;21.22;48.07;100868.44;4988796;28;7037;-72
2022/05/18 01:23:12;;;;;;;;;;;;;;;21.27;47.87;100865.03;4982704;28;6800;-72
2022/05/18 01:26:35;;;;;;;;;;;;;;;21.32;47.52;100863.31;4995807;28;7008;-72
2022/05/18 01:29:05;;;;;;;;;;;;;;;21.37;47.34;100866.88;4999700;28;6824;-72
2022/05/18 01:31:55;;;;;;;;;;;;;;;21.44;47.88;100860.88;4999495;28;8356;-72
2022/05/18 01:34:29;;;;;;;;;;;;;;;21.50;47.33;100866.13;5002967;28;6811;-72
2022/05/18 01:36:55;;;;;;;;;;;;;;;21.56;47.23;100865.31;4999545;28;6891;-71
2022/05/18 01:39:32;;;;;;;;;;;;;;;21.63;46.66;100866.25;4977416;28;6793;-71
2022/05/18 01:42:04;;;;;;;;;;;;;;;21.68;46.88;100872.44;4983498;28;6812;-71
2022/05/18 01:44:30;;;;;;;;;;;;;;;21.71;46.76;100864.63;4998378;28;6823;-71
2022/05/18 01:46:56;;;;;;;;;;;;;;;21.70;46.73;100870.69;5000375;28;6784;-71
2022/05/18 01:49:21;;;;;;;;;;;;;;;21.68;46.64;100872.44;4997356;28;7820;-71
2022/05/18 01:51:53;;;;;;;;;;;;;;;21.63;46.71;100863.63;5004066;28;6799;-71
2022/05/18 01:54:20;;;;;;;;;;;;;;;21.55;46.92;100863.56;5001778;28;6792;-71
2022/05/18 01:56:46;;;;;;;;;;;;;;;21.50;46.42;100865.28;5002887;28;6808;-71
2022/05/18 01:59:12;;;;;;;;;;;;;;;21.42;46.79;100875.59;4999478;28;7145;-71
2022/05/18 02:01:38;;;;;;;;;;;;;;;21.36;46.81;100875.56;4999060;28;6823;-71
2022/05/18 02:04:05;;;;;;;;;;;;;;;21.29;46.81;100866.75;4983108;28;6975;-71
2022/05/18 02:06:35;;;;;;;;;;;;;;;21.22;47.30;100868.44;4983812;28;7251;-71
2022/05/18 02:09:04;;;;;;;;;;;;;;;21.17;46.94;100870.13;4994850;28;7206;-71
2022/05/18 02:11:34;;;;;;;;;;;;;;;21.11;47.18;100869.19;4997643;28;7443;-71
2022/05/18 02:14:00;;;;;;;;;;;;;;;21.05;47.56;100859.53;5001126;28;6812;-71
2022/05/18 02:16:26;;;;;;;;;;;;;;;20.95;47.40;100856.81;4999414;28;7837;-71
2022/05/18 02:18:51;;;;;;;;;;;;;;;20.90;47.75;100860.22;5000312;28;6779;-71
2022/05/18 02:21:17;;;;;;;;;;;;;;;20.85;47.46;100862.78;5002263;28;6804;-71
2022/05/18 02:23:44;;;;;;;;;;;;;;;20.80;47.85;100862.69;4999148;28;6812;-71
2022/05/18 02:26:17;;;;;;;;;;;;;;;20.78;47.92;100863.53;4985477;28;7249;-71
2022/05/18 02:28:44;;;;;;;;;;;;;;;20.75;48.18;100860.88;5002048;28;6808;-71
2022/05/18 02:31:11;;;;;;;;;;;;;;;20.74;47.89;100861.72;4997769;28;6887;-71
2022/05/18 02:33:38;;;;;;;;;;;;;;;20.71;48.16;100864.31;5000390;28;7327;-71
2022/05/18 02:36:06;;;;;;;;;;;;;;;20.66;48.38;100867.69;5012148;28;8301;-71
2022/05/18 02:38:32;;;;;;;;;;;;;;;20.65;48.14;100867.69;5004308;28;7048;-71
2022/05/18 02:40:59;;;;;;;;;;;;;;;20.60;48.52;100857.22;5001018;28;6784;-71
2022/05/18 02:43:26;;;;;;;;;;;;;;;20.58;48.45;100864.16;4983201;28;6795;-71
2022/05/18 02:46:14;;;;;;;;;;;;;;;20.57;48.32;100867.59;4997967;28;6883;-71
2022/05/18 02:48:41;;;;;;;;;;;;;;;20.56;48.42;100859.75;5001963;28;6895;-71
2022/05/18 02:51:08;;;;;;;;;;;;;;;20.57;48.77;100856.31;4998911;28;7006;-71
2022/05/18 02:53:34;;;;;;;;;;;;;;;20.58;48.68;100855.44;5000732;28;6828;-71
2022/05/18 02:56:08;;;;;;;;;;;;;;;20.59;48.63;100857.19;4997535;28;6871;-71
2022/05/18 02:58:48;;;;;;;;;;;;;;;20.59;48.72;100865.00;4999987;28;7045;-71
2022/05/18 03:01:23;;;;;;;;;;;;;;;20.60;48.46;100866.75;5005134;28;7966;-71
2022/05/18 03:03:49;;;;;;;;;;;;;;;20.61;48.42;100869.38;4996224;28;7071;-71
2022/05/18 03:06:20;;;;;;;;;;;;;;;20.64;48.23;100872.03;5001300;28;7134;-72
2022/05/18 03:08:46;;;;;;;;;;;;;;;20.67;48.68;100866.88;5001060;28;6820;-72
2022/05/18 03:11:13;;;;;;;;;;;;;;;20.70;48.15;100858.22;5000144;28;6863;-72
2022/05/18 03:13:40;;;;;;;;;;;;;;;20.71;48.39;100861.69;4984120;28;7905;-72
2022/05/18 03:16:06;;;;;;;;;;;;;;;20.71;48.30;100872.13;4999851;28;6819;-72
2022/05/18 03:18:33;;;;;;;;;;;;;;;20.70;48.26;100862.56;5004598;28;6827;-72
2022/05/18 03:23:43;;;;;;;;;;;;;;;20.71;48.45;100870.38;4999755;28;7204;-72
2022/05/18 03:26:19;;;;;;;;;;;;;;;20.73;48.37;100867.78;4981426;28;8266;-71
2022/05/18 03:28:50;;;;;;;;;;;;;;;20.73;48.61;100873.91;4985984;28;6804;-71
2022/05/18 03:31:17;;;;;;;;;;;;;;;20.78;48.42;100873.97;5013101;28;6819;-71
2022/05/18 03:33:43;;;;;;;;;;;;;;;20.80;48.31;100870.50;5001676;28;6961;-71
2022/05/18 03:36:12;;;;;;;;;;;;;;;20.85;48.35;100875.81;4999377;28;6807;-71
2022/05/18 03:38:40;;;;;;;;;;;;;;;20.85;48.16;100875.81;5001109;28;7893;-71
2022/05/18 03:41:05;;;;;;;;;;;;;;;20.86;48.20;100876.69;4969879;28;6994;-71
2022/05/18 03:43:31;;;;;;;;;;;;;;;20.87;48.37;100878.44;4996340;28;6799;-71
2022/05/18 03:46:00;;;;;;;;;;;;;;;20.88;47.97;100882.78;4995747;28;6880;-71
2022/05/18 03:48:27;;;;;;;;;;;;;;;20.89;48.05;100877.59;5003264;28;6827;-71
2022/05/18 03:50:57;;;;;;;;;;;;;;;20.91;47.97;100882.84;4999392;28;7221;-71
2022/05/18 03:53:23;;;;;;;;;;;;;;;20.95;48.27;100884.63;4985158;28;6812;-71
2022/05/18 03:55:50;;;;;;;;;;;;;;;20.97;47.95;100882.03;4999147;28;6887;-71
2022/05/18 03:58:16;;;;;;;;;;;;;;;21.00;47.89;100889.91;4978270;28;6994;-71
2022/05/18 04:00:46;;;;;;;;;;;;;;;21.01;47.96;100886.44;4991539;28;7247;-71
2022/05/18 04:03:14;;;;;;;;;;;;;;;21.02;48.00;100896.88;4998171;28;7984;-71
2022/05/18 04:05:40;;;;;;;;;;;;;;;21.03;47.62;100898.63;4995448;28;7854;-71
2022/05/18 04:08:08;;;;;;;;;;;;;;;21.04;47.81;100896.88;4995021;28;7141;-72
2022/05/18 04:10:36;;;;;;;;;;;;;;;21.05;47.84;100906.44;4996213;28;7314;-72
2022/05/18 04:13:02;;;;;;;;;;;;;;;21.06;47.49;100903.00;4996492;28;7065;-72
2022/05/18 04:15:28;;;;;;;;;;;;;;;21.06;47.90;100909.06;4980940;28;7042;-72
2022/05/18 04:17:55;;;;;;;;;;;;;;;21.07;47.74;100905.63;4994560;28;6780;-72
2022/05/18 04:20:23;;;;;;;;;;;;;;;21.10;48.38;100907.38;4997750;28;7291;-72
2022/05/18 04:22:51;;;;;;;;;;;;;;;21.18;48.53;100917.91;4995141;28;6815;-73
2022/05/18 04:25:22;;;;;;;;;;;;;;;21.31;48.60;100913.72;4993632;28;7622;-72
2022/05/18 04:27:48;;;;;;;;;;;;;;;21.46;48.38;100923.44;4974308;28;6976;-72
2022/05/18 04:30:20;;;;;;;;;;;;;;;21.61;48.33;100918.41;5002360;28;6787;-72
2022/05/18 04:32:46;;;;;;;;;;;;;;;21.77;48.31;100921.19;4999011;28;7011;-72
2022/05/18 04:35:15;;;;;;;;;;;;;;;21.98;48.56;100930.97;4999168;28;7194;-72
2022/05/18 04:37:41;;;;;;;;;;;;;;;22.17;47.69;100938.97;5002819;28;6792;-72
2022/05/18 04:40:09;;;;;;;;;;;;;;;22.31;47.83;100933.84;5001267;28;7120;-72
2022/05/18 04:42:35;;;;;;;;;;;;;;;22.48;48.04;100939.19;4965648;28;6990;-72
2022/05/18 04:45:04;;;;;;;;;;;;;;;22.68;47.81;100942.00;5001846;28;7014;-72
2022/05/18 04:47:30;;;;;;;;;;;;;;;22.90;48.41;100936.88;4988380;28;6907;-72
2022/05/18 04:49:57;;;;;;;;;;;;;;;23.18;47.44;100937.00;5003656;28;6799;-72
2022/05/18 04:52:24;;;;;;;;;;;;;;;23.43;47.63;100938.00;5005078;28;6800;-72
2022/05/18 04:54:50;;;;;;;;;;;;;;;23.71;47.67;100929.38;5001508;28;6796;-72
2022/05/18 04:57:17;;;;;;;;;;;;;;;24.00;46.42;100939.00;4989522;28;7178;-73
2022/05/18 04:59:44;;;;;;;;;;;;;;;24.26;46.77;100941.66;4985899;28;7000;-72
2022/05/18 05:02:10;;;;;;;;;;;;;;;24.48;45.85;100939.00;5006071;28;7026;-72
2022/05/18 05:04:36;;;;;;;;;;;;;;;24.70;45.46;100946.84;5009388;28;7082;-72
2022/05/18 05:07:03;;;;;;;;;;;;;;;24.93;45.36;100949.44;5006587;28;7101;-72
2022/05/18 05:09:30;;;;;;;;;;;;;;;25.17;45.22;100945.00;5005701;28;6808;-73
2022/05/18 05:11:56;;;;;;;;;;;;;;;25.41;44.58;100952.75;5006101;28;6856;-73
2022/05/18 05:14:23;;;;;;;;;;;;;;;25.68;44.68;100948.25;5008783;28;7042;-73
2022/05/18 05:16:49;;;;;;;;;;;;;;;25.97;44.44;100950.69;5001125;28;6804;-73
2022/05/18 05:19:14;;;;;;;;;;;;;;;26.27;44.03;100947.84;5004117;28;6784;-73
2022/05/18 05:21:44;;;;;;;;;;;;;;;26.56;43.90;100954.59;5002185;28;7014;-73
2022/05/18 05:24:15;;;;;;;;;;;;;;;26.87;43.40;100949.03;5000850;28;7980;-73
2022/05/18 05:26:43;;;;;;;;;;;;;;;27.10;42.45;100950.53;4991485;28;6812;-73
2022/05/18 05:29:10;;;;;;;;;;;;;;;27.17;41.94;100953.06;5008449;28;7083;-73
2022/05/18 05:31:38;;;;;;;;;;;;;;;27.11;41.81;100970.69;5004698;28;6954;-73
2022/05/18 05:34:04;;;;;;;;;;;;;;;26.95;41.68;100978.78;5004630;28;6896;-73
2022/05/18 05:36:30;;;;;;;;;;;;;;;26.78;41.70;100976.25;5005192;28;7265;-73
2022/05/18 05:38:57;;;;;;;;;;;;;;;26.75;42.11;100978.94;5004445;28;6892;-73
2022/05/18 05:41:24;;;;;;;;;;;;;;;26.88;42.52;100977.09;4986705;28;6987;-73
2022/05/18 05:43:50;;;;;;;;;;;;;;;27.06;42.02;100985.66;4998660;28;6800;-73
2022/05/18 05:46:17;;;;;;;;;;;;;;;27.15;41.79;100990.81;5005792;28;7143;-73
2022/05/18 05:48:46;;;;;;;;;;;;;;;27.23;41.61;100983.69;5004270;28;6820;-73
2022/05/18 05:51:13;;;;;;;;;;;;;;;27.28;42.06;100987.13;5005592;28;6848;-73
2022/05/18 05:53:41;;;;;;;;;;;;;;;27.34;41.21;100994.06;5004505;28;8115;-73
2022/05/18 05:56:08;;;;;;;;;;;;;;;27.36;41.35;100994.94;5004322;28;6796;-73
2022/05/18 05:58:36;;;;;;;;;;;;;;;27.28;40.60;100997.66;5016410;28;6868;-73
2022/05/18 06:01:09;;;;;;;;;;;;;;;27.17;40.83;101000.41;5001990;28;6971;-73
2022/05/18 06:03:35;;;;;;;;;;;;;;;27.03;40.90;101003.19;4999302;28;6827;-73
2022/05/18 06:06:02;;;;;;;;;;;;;;;26.88;41.13;100980.56;5004358;28;6804;-73
2022/05/18 06:08:30;;;;;;;;;;;;;;;26.75;41.23;100992.09;5005775;28;6820;-73
2022/05/18 06:10:57;;;;;;;;;;;;;;;26.64;41.48;100996.56;5000383;28;6815;-73
2022/05/18 06:13:23;;;;;;;;;;;;;;;26.53;41.69;100996.66;5003540;28;6904;-73
2022/05/18 06:15:48;;;;;;;;;;;;;;;26.41;41.60;100997.63;5003378;28;7011;-73
2022/05/18 06:18:15;;;;;;;;;;;;;;;26.27;41.83;100992.50;5007186;28;6950;-73
2022/05/18 06:20:41;;;;;;;;;;;;;;;26.15;42.05;100986.44;5004097;28;7162;-73
2022/05/18 06:23:09;;;;;;;;;;;;;;;26.12;42.33;100985.56;5005671;28;6784;-73
2022/05/18 06:25:36;;;;;;;;;;;;;;;26.11;42.39;100982.09;5007414;28;6820;-73
2022/05/18 06:28:05;;;;;;;;;;;;;;;26.15;42.17;100986.44;4983924;28;6962;-73
2022/05/18 06:30:30;;;;;;;;;;;;;;;26.21;42.13;100982.91;5005079;28;7003;-73
2022/05/18 06:32:56;;;;;;;;;;;;;;;26.29;42.44;100996.88;5022233;28;7235;-73
2022/05/18 06:35:23;;;;;;;;;;;;;;;26.37;41.94;101012.59;5004789;28;7164;-73
2022/05/18 06:37:51;;;;;;;;;;;;;;;26.46;42.10;101009.00;5005084;28;6815;-73
2022/05/18 06:40:18;;;;;;;;;;;;;;;26.53;42.12;101007.19;5003559;28;7062;-73
2022/05/18 06:42:45;;;;;;;;;;;;;;;26.59;41.94;101012.41;5005883;28;7275;-73
2022/05/18 06:45:13;;;;;;;;;;;;;;;26.67;42.10;101013.19;4980814;28;7351;-72
2022/05/18 06:47:39;;;;;;;;;;;;;;;26.75;41.75;101008.75;4987431;28;6990;-72
2022/05/18 06:50:09;;;;;;;;;;;;;;;26.83;41.45;101000.78;5003654;28;6812;-72
2022/05/18 06:52:35;;;;;;;;;;;;;;;26.92;41.33;100994.56;5003486;28;6820;-72
2022/05/18 06:55:01;;;;;;;;;;;;;;;27.00;40.95;100992.72;5000942;28;6975;-72
2022/05/18 06:57:27;;;;;;;;;;;;;;;27.10;40.73;100985.63;5003316;28;6948;-72
2022/05/18 06:59:52;;;;;;;;;;;;;;;27.18;40.73;100985.50;4998530;28;6799;-72
2022/05/18 07:02:18;;;;;;;;;;;;;;;27.34;40.95;100991.44;5005847;28;6779;-72
2022/05/18 07:04:44;;;;;;;;;;;;;;;27.58;41.22;100992.06;4999473;28;6926;-72
2022/05/18 07:07:09;;;;;;;;;;;;;;;27.89;41.44;100993.38;5003921;28;7881;-72
2022/05/18 07:09:36;;;;;;;;;;;;;;;28.27;40.79;100994.56;5000166;28;6788;-73
2022/05/18 07:12:02;;;;;;;;;;;;;;;28.68;40.45;100994.75;5003525;28;6809;-73
2022/05/18 07:14:29;;;;;;;;;;;;;;;29.09;39.65;100992.25;5005415;28;7179;-73
2022/05/18 07:16:56;;;;;;;;;;;;;;;29.49;39.32;100980.88;5003867;28;6823;-73
2022/05/18 07:19:24;;;;;;;;;;;;;;;29.88;38.81;100987.06;4988103;28;6800;-73
2022/05/18 07:21:50;;;;;;;;;;;;;;;30.26;38.88;100984.41;4982961;28;6788;-73
2022/05/18 07:24:17;;;;;;;;;;;;;;;30.59;37.73;100981.81;5001256;28;6883;-73
2022/05/18 07:26:44;;;;;;;;;;;;;;;30.88;37.04;100973.06;4970007;28;6923;-73
2022/05/18 07:29:11;;;;;;;;;;;;;;;31.20;36.65;100974.88;4997748;28;6991;-73
2022/05/18 07:34:22;;;;;;;;;;;;;;;31.91;36.10;100978.03;4998613;28;6880;-72
2022/05/18 07:36:53;;;;;;;;;;;;;;;32.31;35.95;100974.94;4995180;28;6815;-72
2022/05/18 07:39:19;;;;;;;;;;;;;;;32.60;35.55;100981.94;4999003;28;6807;-72
2022/05/18 07:41:45;;;;;;;;;;;;;;;32.80;35.38;100981.19;4982804;28;7247;-72
2022/05/18 07:44:12;;;;;;;;;;;;;;;32.97;35.01;100988.56;4998316;28;6775;-72
2022/05/18 07:46:38;;;;;;;;;;;;;;;33.10;34.88;100982.81;4996551;28;7333;-73
2022/05/18 07:49:04;;;;;;;;;;;;;;;33.13;34.08;100981.81;5002256;28;6875;-73
2022/05/18 07:51:31;;;;;;;;;;;;;;;33.06;33.67;100989.16;5002744;28;6891;-73
2022/05/18 07:53:56;;;;;;;;;;;;;;;32.99;33.34;100990.31;5006637;28;7424;-73
2022/05/18 07:56:22;;;;;;;;;;;;;;;32.89;33.56;100998.59;4998001;28;6812;-73
2022/05/18 07:58:48;;;;;;;;;;;;;;;32.81;33.47;101001.50;5002466;28;6800;-73
2022/05/18 08:01:13;;;;;;;;;;;;;;;32.78;33.75;101001.63;5001006;28;7233;-73
2022/05/18 08:03:39;;;;;;;;;;;;;;;32.82;33.92;100997.94;5003621;28;6882;-73
2022/05/18 08:06:05;;;;;;;;;;;;;;;32.91;33.90;100995.88;5006417;28;6890;-73
2022/05/18 08:08:31;;;;;;;;;;;;;;;32.95;33.79;101000.19;5004186;28;7086;-73
2022/05/18 08:16:28;;;;;;;;;;;;;;;33.20;33.81;100991.28;5001564;28;6901;-73
2022/05/18 08:18:53;;;;;;;;;;;;;;;33.36;33.65;100995.09;5000165;28;7315;-73
2022/05/18 08:21:19;;;;;;;;;;;;;;;33.57;33.34;100992.56;5006156;28;7142;-73
2022/05/18 08:23:45;;;;;;;;;;;;;;;33.87;32.23;100999.38;5006106;28;6791;-73
2022/05/18 08:26:11;;;;;;;;;;;;;;;34.16;32.33;101006.16;5004982;28;6862;-73
2022/05/18 08:28:37;;;;;;;;;;;;;;;34.32;31.52;101005.50;5007652;28;6863;-73
2022/05/18 08:31:04;;;;;;;;;;;;;;;34.39;31.22;101007.00;5001290;28;6823;-73
2022/05/18 08:33:32;;;;;;;;;;;;;;;34.41;30.86;101007.78;5006857;28;7145;-73
2022/05/18 08:36:07;;;;;;;;;;;;;;;34.53;31.09;101011.75;5004163;28;6887;-73
2022/05/18 08:38:36;;;;;;;;;;;;;;;34.65;30.86;101007.66;5002982;28;6819;-73
2022/05/18 08:41:22;;;;;;;;;;;;;;;34.69;29.98;101013.72;5010335;28;6875;-74
2022/05/18 08:43:54;;;;;;;;;;;;;;;34.76;30.36;101016.03;5004161;28;6899;-74
2022/05/18 08:46:43;;;;;;;;;;;;;;;34.98;29.63;101014.22;5004462;28;7062;-74
2022/05/18 08:49:43;;;;;;;;;;;;;;;34.96;29.82;101016.97;5003264;28;6792;-73
2022/05/18 08:52:58;;;;;;;;;;;;;;;34.79;29.83;101019.50;4999756;28;6828;-73
2022/05/18 08:55:45;;;;;;;;;;;;;;;34.71;30.18;101017.16;4999934;28;6890;-73
2022/05/18 08:58:48;;;;;;;;;;;;;;;34.56;29.83;101010.72;5007925;28;7082;-72
2022/05/18 09:01:41;;;;;;;;;;;;;;;34.49;30.00;101026.06;5002429;28;6827;-72
2022/05/18 09:04:15;;;;;;;;;;;;;;;34.68;30.75;101017.31;5005083;28;7864;-72
2022/05/18 09:07:11;;;;;;;;;;;;;;;35.08;29.91;101025.34;5006543;28;6808;-72
2022/05/18 09:12:34;;;;;;;;;;;;;;;36.07;29.02;101019.81;5001947;28;7066;-72
2022/05/18 09:15:01;;;;;;;;;;;;;;;36.61;28.92;101013.59;5001618;28;6792;-72
2022/05/18 09:17:56;;;;;;;;;;;;;;;37.08;28.30;101020.00;5004730;28;6981;-72
2022/05/18 09:20:45;;;;;;;;;;;;;;;37.50;27.78;101007.91;4994174;28;6808;-72
2022/05/18 09:23:33;;;;;;;;;;;;;;;37.94;27.11;101016.13;5001762;28;7038;-72
2022/05/18 09:26:32;;;;;;;;;;;;;;;38.37;26.64;101017.25;5006310;28;6815;-73
2022/05/18 09:29:26;;;;;;;;;;;;;;;38.90;26.25;101009.59;5002221;28;6908;-73
2022/05/18 09:32:30;;;;;;;;;;;;;;;39.47;25.53;100998.91;5006367;28;6823;-73
2022/05/18 09:35:37;;;;;;;;;;;;;;;39.80;25.14;100992.31;5004603;28;6973;-73
2022/05/18 09:38:32;;;;;;;;;;;;;;;40.19;24.60;100993.28;5006014;28;6819;-73
2022/05/18 09:41:03;;;;;;;;;;;;;;;40.38;24.16;100990.19;5000136;28;7947;-73
2022/05/18 09:43:53;;;;;;;;;;;;;;;40.43;23.66;100995.22;4984840;28;6975;-73
2022/05/18 09:46:25;;;;;;;;;;;;;;;40.47;23.88;100995.88;4999703;28;6815;-73
2022/05/18 09:49:09;;;;;;;;;;;;;;;40.41;23.42;100998.00;4983896;28;7027;-73
2022/05/18 09:51:37;;;;;;;;;;;;;;;40.42;23.65;100988.16;5003667;28;7130;-73
2022/05/18 09:54:05;;;;;;;;;;;;;;;40.53;23.40;100988.25;5002509;28;6811;-73
2022/05/18 09:56:49;;;;;;;;;;;;;;;40.63;22.99;100990.28;5004132;28;6788;-73
2022/05/18 09:59:30;;;;;;;;;;;;;;;40.80;22.90;100981.94;5022022;28;6889;-73
2022/05/18 10:07:34;;;;;;;;;;;;;;;42.20;21.98;100982.44;5003048;28;7232;-73
2022/05/18 10:10:38;;;;;;;;;;;;;;;42.79;21.23;100981.53;5001453;28;6815;-74
2022/05/18 10:13:12;;;;;;;;;;;;;;;43.19;20.68;100977.44;4987589;28;7030;-73
2022/05/18 10:15:47;;;;;;;;;;;;;;;43.23;20.40;100973.53;5005327;28;6820;-73
2022/05/18 10:18:46;;;;;;;;;;;;;;;43.26;20.72;100974.09;5015569;28;6808;-73
2022/05/18 10:21:24;;;;;;;;;;;;;;;43.33;20.19;100969.09;5004248;28;6827;-73
2022/05/18 10:24:20;;;;;;;;;;;;;;;43.55;20.27;100973.53;5005284;28;6976;-73
2022/05/18 10:27:16;;;;;;;;;;;;;;;43.98;19.85;100968.22;4999729;28;6855;-73
2022/05/18 10:29:48;;;;;;;;;;;;;;;44.28;19.43;100971.09;5000982;28;6792;-73
2022/05/18 10:32:23;;;;;;;;;;;;;;;44.58;19.21;100974.84;4986746;28;7004;-73
2022/05/18 10:34:55;;;;;;;;;;;;;;;44.92;19.00;100966.41;5020295;28;7019;-73
2022/05/18 10:37:36;;;;;;;;;;;;;;;45.25;18.84;100963.50;5003614;28;6800;-73
2022/05/18 10:40:19;;;;;;;;;;;;;;;45.55;18.54;100967.97;4987954;28;6792;-73
2022/05/18 10:42:55;;;;;;;;;;;;;;;45.66;18.17;100958.00;5000912;28;7535;-73
2022/05/18 10:45:27;;;;;;;;;;;;;;;45.59;17.70;100961.25;4997000;28;6812;-73
2022/05/18 10:48:23;;;;;;;;;;;;;;;45.57;17.41;100954.28;5000303;28;6994;-73
2022/05/18 10:51:00;;;;;;;;;;;;;;;45.56;17.04;100952.56;5003060;28;6899;-73
2022/05/18 10:53:42;;;;;;;;;;;;;;;45.62;17.19;100952.00;5004978;28;6804;-73
2022/05/18 10:56:13;;;;;;;;;;;;;;;45.80;17.06;100943.19;4999930;28;6804;-73
2022/05/18 10:58:45;;;;;;;;;;;;;;;45.90;17.06;100944.03;5002719;28;6808;-73
2022/05/18 11:01:27;;;;;;;;;;;;;;;46.01;16.69;100954.66;5000556;28;7011;-74
2022/05/18 11:04:15;;;;;;;;;;;;;;;46.10;16.61;100949.38;4998735;28;7651;-74
2022/05/18 11:06:42;;;;;;;;;;;;;;;46.16;16.58;100955.09;5005458;28;6904;-74
2022/05/18 11:09:25;;;;;;;;;;;;;;;46.28;15.82;100936.81;5002785;28;6868;-73
2022/05/18 11:12:19;;;;;;;;;;;;;;;46.29;15.96;100938.50;4980956;28;7047;-73
2022/05/18 11:14:55;;;;;;;;;;;;;;;46.22;16.32;100940.09;4999236;28;7087;-73
2022/05/18 11:17:57;;;;;;;;;;;;;;;46.20;15.99;100936.69;5000511;28;7038;-73
2022/05/18 11:20:31;;;;;;;;;;;;;;;46.28;15.89;100930.53;5005311;28;7291;-74
2022/05/18 11:23:34;;;;;;;;;;;;;;;46.41;15.96;100927.47;5000763;28;6820;-73
2022/05/18 11:26:18;;;;;;;;;;;;;;;46.57;16.07;100935.84;5006075;28;6982;-73
2022/05/18 11:29:04;;;;;;;;;;;;;;;46.64;16.10;100935.22;4998126;28;6966;-73
2022/05/18 11:32:11;;;;;;;;;;;;;;;46.65;15.91;100931.50;4997275;28;6792;-73
2022/05/18 11:35:16;;;;;;;;;;;;;;;46.66;15.52;100930.53;5004365;28;6812;-73
2022/05/18 11:38:25;;;;;;;;;;;;;;;46.61;15.67;100925.56;5002215;28;6819;-74
2022/05/18 11:41:30;;;;;;;;;;;;;;;46.64;15.85;100925.25;5013683;28;6891;-73
2022/05/18 11:44:03;;;;;;;;;;;;;;;46.58;15.62;100928.53;4996703;28;7027;-74
2022/05/18 11:46:56;;;;;;;;;;;;;;;46.54;15.73;100927.13;4999935;28;6800;-73
2022/05/18 11:49:54;;;;;;;;;;;;;;;46.54;15.63;100925.25;5006530;28;6831;-73
2022/05/18 11:53:03;;;;;;;;;;;;;;;46.39;15.33;100911.34;5001135;28;7004;-73
2022/05/18 11:56:24;;;;;;;;;;;;;;;46.16;15.19;100916.28;5003787;28;6816;-73
2022/05/18 12:02:29;;;;;;;;;;;;;;;46.21;15.65;100914.03;4999635;28;6892;-73
2022/05/18 12:05:16;;;;;;;;;;;;;;;46.27;15.46;100908.00;5004009;28;6815;-73
2022/05/18 12:07:57;;;;;;;;;;;;;;;46.38;15.49;100911.53;4997747;28;7113;-73
2022/05/18 12:10:43;;;;;;;;;;;;;;;46.64;15.49;100903.56;4997119;28;6807;-73
2022/05/18 12:13:52;;;;;;;;;;;;;;;46.77;15.29;100902.34;5012642;28;6816;-73
2022/05/18 12:16:33;;;;;;;;;;;;;;;46.67;15.08;100899.69;4989594;28;7680;-73
2022/05/18 12:19:32;;;;;;;;;;;;;;;46.51;15.43;100898.47;4981397;28;7173;-73
2022/05/18 12:22:07;;;;;;;;;;;;;;;46.41;15.46;100897.66;4999824;28;7316;-73
2022/05/18 12:24:34;;;;;;;;;;;;;;;46.40;15.50;100893.25;4994003;28;6804;-73
2022/05/18 12:27:02;;;;;;;;;;;;;;;46.31;15.34;100895.88;4997657;28;7023;-73
2022/05/18 12:29:29;;;;;;;;;;;;;;;46.27;15.58;100894.47;4999930;28;7220;-73
2022/05/18 12:31:57;;;;;;;;;;;;;;;46.37;15.58;100886.28;5001427;28;6866;-73
2022/05/18 12:34:35;;;;;;;;;;;;;;;46.37;15.47;100896.28;5000263;28;6796;-73
2022/05/18 12:37:13;;;;;;;;;;;;;;;46.39;15.68;100891.56;4999428;28;7125;-73
2022/05/18 12:40:14;;;;;;;;;;;;;;;46.59;15.68;100893.19;4990858;28;6910;-73
2022/05/18 12:42:48;;;;;;;;;;;;;;;46.72;15.51;100881.97;5004134;28;7182;-73
2022/05/18 12:45:37;;;;;;;;;;;;;;;46.86;15.64;100898.69;5001374;28;6887;-73
2022/05/18 12:48:22;;;;;;;;;;;;;;;46.94;15.50;100885.25;4999346;28;6903;-73
2022/05/18 12:50:47;;;;;;;;;;;;;;;47.01;15.37;100882.78;4979296;28;7042;-73
2022/05/18 12:53:26;;;;;;;;;;;;;;;46.92;15.15;100886.38;5001959;28;6862;-73
2022/05/18 12:56:18;;;;;;;;;;;;;;;46.26;15.07;100894.59;4998440;28;6812;-73
2022/05/18 12:58:56;;;;;;;;;;;;;;;45.40;15.39;100904.47;5005882;28;7039;-74
2022/05/18 13:01:29;;;;;;;;;;;;;;;44.73;16.08;100896.97;4991394;28;6970;-73
2022/05/18 13:04:08;;;;;;;;;;;;;;;44.34;16.60;100893.13;5002229;28;8008;-73
2022/05/18 13:06:39;;;;;;;;;;;;;;;43.89;16.62;100888.03;5004678;28;6811;-73
2022/05/18 13:09:36;;;;;;;;;;;;;;;43.30;17.19;100888.41;5002704;28;6820;-73
2022/05/18 13:12:23;;;;;;;;;;;;;;;42.52;17.40;100893.88;5002644;28;6923;-73
2022/05/18 13:15:02;;;;;;;;;;;;;;;41.89;17.95;100900.53;5005367;28;7222;-73
2022/05/18 13:17:58;;;;;;;;;;;;;;;41.20;18.41;100902.03;4998318;28;6824;-73
2022/05/18 13:20:26;;;;;;;;;;;;;;;40.72;18.88;100895.63;4995782;28;6808;-73
2022/05/18 13:23:31;;;;;;;;;;;;;;;40.26;19.26;100892.53;5016482;28;6890;-73
2022/05/18 13:26:30;;;;;;;;;;;;;;;40.18;19.44;100892.25;5000845;28;6811;-74
2022/05/18 13:29:19;;;;;;;;;;;;;;;40.06;19.44;100890.41;5005106;28;7162;-74
2022/05/18 13:31:56;;;;;;;;;;;;;;;39.79;19.55;100888.63;4997524;28;6804;-74
2022/05/18 13:34:30;;;;;;;;;;;;;;;39.51;19.95;100893.22;4998627;28;7264;-73
2022/05/18 13:36:59;;;;;;;;;;;;;;;39.34;20.32;100883.56;5004531;28;7353;-73
2022/05/18 13:39:38;;;;;;;;;;;;;;;39.26;20.34;100884.09;4993103;28;7065;-73
2022/05/18 13:42:16;;;;;;;;;;;;;;;39.23;20.64;100884.31;5003093;28;7000;-73
2022/05/18 13:44:44;;;;;;;;;;;;;;;39.31;21.09;100879.31;4998860;28;6820;-73